»·PEaware :: LXJ4869 KLAS-KSLC

LXJ4869 :: KLAS-KSLC

FLIGHT INFORMATION

Flight Status: Arrived
Operator: Unknown
More flights by this operator :: More flights under this callsign
Pilot: Jamie M. (16133)
Aircraft: BOMBARDIER BD-100 CHALLENGER 300
(CL30)
More flights by this aircraft type
Origin: KLAS McCarran Intl
United States
Destination: KSLC Salt Lake City Intl
United States
More flights between these airports :: More routes between these airports
Route: TRALR9 MLF QWENN5
File this flight plan on PilotEdge
Remarks:
Altitude:
(Current/Filed)
37,000ft
Speed:
(Current/Filed)
480kts
Departed: 23-Jul-18 06:02 PM
Arrived: 23-Jul-18 07:00 PM
Distance/Time
Traveled:
319nm/0:57
Distance/Time
To Go:
Arrived

Flight Plot

Page will automatically refresh every two minutes.

Flight plan parsing failed; only flown route is shown


Map Options




Map Legend


Flown Route
Filed Route
Departure Airport
Arrival Airport
Navaid (VOR, NDB)
Fix

Horizontal Profiles

Position Reports

Time Latitude Longitude Heading Altitude Ground
Speed
23-Jul-18 17:40 36.081233 -115.170601 89 2120ft 0kts
23-Jul-18 17:41 36.081233 -115.170601 89 2120ft 0kts
23-Jul-18 17:42 36.081233 -115.170601 89 2120ft 0kts
23-Jul-18 17:43 36.081233 -115.170601 89 2120ft 0kts
23-Jul-18 17:44 36.081233 -115.170601 89 2120ft 0kts
23-Jul-18 17:45 36.081233 -115.170601 89 2120ft 0kts
23-Jul-18 17:46 36.081233 -115.170601 89 2120ft 0kts
23-Jul-18 17:47 36.081233 -115.170601 89 2120ft 0kts
23-Jul-18 17:48 36.081233 -115.170601 89 2120ft 0kts
23-Jul-18 17:49 36.081233 -115.170601 89 2120ft 0kts
23-Jul-18 17:50 36.081233 -115.170601 89 2120ft 0kts
23-Jul-18 17:51 36.081233 -115.170601 89 2120ft 0kts
23-Jul-18 17:52 36.081231 -115.170095 91 2121ft 2kts
23-Jul-18 17:53 36.082481 -115.168675 26 2120ft 7kts
23-Jul-18 17:54 36.085024 -115.167221 27 2121ft 9kts
23-Jul-18 17:55 36.087212 -115.165950 25 2120ft 7kts
23-Jul-18 17:56 36.090589 -115.164044 24 2121ft 22kts
23-Jul-18 17:57 36.094997 -115.161456 25 2120ft 16kts
23-Jul-18 17:58 36.098826 -115.159322 25 2121ft 7kts
23-Jul-18 17:59 36.099855 -115.157581 90 2121ft 0kts
23-Jul-18 18:00 36.099855 -115.157581 90 2121ft 0kts
23-Jul-18 18:01 36.099855 -115.157581 90 2121ft 0kts
23-Jul-18 18:02 36.099221 -115.156704 204 2120ft 0kts
23-Jul-18 18:03 36.068312 -115.174585 205 3801ft 213kts
23-Jul-18 18:04 36.016188 -115.210779 237 6771ft 227kts
23-Jul-18 18:05 35.968921 -115.279150 188 7248ft 293kts
23-Jul-18 18:06 35.892812 -115.260394 143 11235ft 308kts
23-Jul-18 18:07 35.870350 -115.154686 93 14939ft 371kts
23-Jul-18 18:08 35.887092 -115.030691 65 18980ft 397kts
23-Jul-18 18:09 35.938084 -114.908161 62 18964ft 403kts
23-Jul-18 18:10 35.987412 -114.782770 65 20661ft 408kts
23-Jul-18 18:11 36.036692 -114.654853 65 22941ft 421kts
23-Jul-18 18:12 36.087407 -114.522940 65 22965ft 429kts
23-Jul-18 18:13 36.138167 -114.390445 65 23476ft 433kts
23-Jul-18 18:14 36.188929 -114.257406 65 26497ft 439kts
23-Jul-18 18:15 36.242451 -114.119703 65 28753ft 454kts
23-Jul-18 18:16 36.297621 -113.977404 65 30726ft 467kts
23-Jul-18 18:17 36.354183 -113.830883 65 32454ft 479kts
23-Jul-18 18:18 36.418069 -113.684543 50 33980ft 486kts
23-Jul-18 18:19 36.527352 -113.599858 19 36342ft 462kts
23-Jul-18 18:20 36.651986 -113.554492 14 37033ft 482kts
23-Jul-18 18:21 36.781991 -113.513776 13 37010ft 482kts
23-Jul-18 18:22 36.911040 -113.474491 13 37024ft 479kts
23-Jul-18 18:23 37.039945 -113.435284 12 37011ft 478kts
23-Jul-18 18:24 37.167618 -113.396401 11 37010ft 479kts
23-Jul-18 18:25 37.297125 -113.356887 11 37014ft 481kts
23-Jul-18 18:26 37.425541 -113.316959 12 37162ft 479kts
23-Jul-18 18:27 37.553923 -113.275750 12 37245ft 479kts
23-Jul-18 18:28 37.682933 -113.234172 12 37246ft 481kts
23-Jul-18 18:29 37.812322 -113.192318 12 37247ft 483kts
23-Jul-18 18:30 37.942157 -113.150161 12 37247ft 484kts
23-Jul-18 18:31 38.072459 -113.107698 12 37227ft 485kts
23-Jul-18 18:32 38.200332 -113.065871 12 37210ft 486kts
23-Jul-18 18:33 38.330972 -113.022986 12 37209ft 486kts
23-Jul-18 18:34 38.456846 -112.961538 20 37210ft 488kts
23-Jul-18 18:35 38.581974 -112.895118 21 37211ft 487kts
23-Jul-18 18:36 38.706383 -112.828518 21 37211ft 487kts
23-Jul-18 18:37 38.830977 -112.761509 21 37210ft 486kts
23-Jul-18 18:38 38.955179 -112.694355 20 37200ft 487kts
23-Jul-18 18:39 39.079836 -112.626753 18 36703ft 489kts
23-Jul-18 18:40 39.180279 -112.572176 18 34966ft 483kts
23-Jul-18 18:41 39.299676 -112.506926 18 32672ft 455kts
23-Jul-18 18:42 39.412253 -112.442540 18 30216ft 434kts
23-Jul-18 18:43 39.519615 -112.380861 18 27734ft 418kts
23-Jul-18 18:44 39.623686 -112.320885 20 25182ft 419kts
23-Jul-18 18:45 39.730177 -112.259297 20 22584ft 421kts
23-Jul-18 18:46 39.835622 -112.198087 21 19973ft 411kts
23-Jul-18 18:47 39.937387 -112.138814 22 17357ft 393kts
23-Jul-18 18:48 40.030948 -112.082960 23 15025ft 336kts
23-Jul-18 18:49 40.110138 -112.035128 24 13026ft 315kts
23-Jul-18 18:50 40.189472 -111.987053 24 11228ft 310kts
23-Jul-18 18:51 40.264580 -111.944475 11 11211ft 287kts
23-Jul-18 18:52 40.343081 -111.934040 4 11210ft 282kts
23-Jul-18 18:53 40.421085 -111.933623 355 11212ft 280kts
23-Jul-18 18:54 40.495726 -111.940874 355 10206ft 259kts
23-Jul-18 18:55 40.565517 -111.946851 355 8638ft 241kts
23-Jul-18 18:56 40.617300 -111.959195 344 7377ft 210kts
23-Jul-18 18:57 40.669496 -111.964862 1 6324ft 173kts
23-Jul-18 18:58 40.708506 -111.962453 356 5485ft 124kts
23-Jul-18 18:59 40.748299 -111.962236 358 4712ft 123kts
23-Jul-18 19:00 40.780706 -111.962008 354 4203ft 92kts
23-Jul-18 19:01 40.786183 -111.960896 127 4203ft 6kts
23-Jul-18 19:02 40.785168 -111.960015 180 4203ft 1kts
23-Jul-18 19:03 40.783334 -111.960021 179 4203ft 9kts
23-Jul-18 19:04 40.780404 -111.960012 179 4203ft 11kts
23-Jul-18 19:05 40.778651 -111.959063 156 4203ft 11kts
23-Jul-18 19:06 40.777878 -111.959880 264 4203ft 0kts
23-Jul-18 19:07 40.777878 -111.959880 264 4203ft 0kts
23-Jul-18 19:08 40.777878 -111.959880 264 4203ft 0kts
23-Jul-18 19:09 40.777878 -111.959880 264 4203ft 0kts
23-Jul-18 19:10 40.777878 -111.959880 264 4203ft 0kts

Navigation Log

Ident Type
Flight plan parsing failed, navigation log unavailable